Terminal Aerodrome Forecast
Issued by NWS

Home | Current Version | Previous Version | Graphics & Text | Print | Product List | Glossary On
Versions: 1 2 3 4 5 6 7 8 9 10 11 12 13 14 15 16 17
000
FTUS43 KBIS 131700
TAFMOT
TAF
KMOT 131724Z 1318/1418 27014G22KT P6SM SCT050 BKN090
     FM140200 30008KT P6SM BKN050
     FM140500 29007KT P6SM SCT050=

USA.gov is the U.S. government's official web portal to all federal, state and local government web resources and services.